sensor_id;sensor_type;location;lat;lon;timestamp;P1;durP1;ratioP1;P2;durP2;ratioP2
61291;SDS011;47165;42.664;23.368;2023-02-10T00:02:23;0.70;;;0.70;;
61291;SDS011;47165;42.664;23.368;2023-02-10T00:04:49;0.43;;;0.43;;
61291;SDS011;47165;42.664;23.368;2023-02-10T00:07:16;0.55;;;0.55;;
61291;SDS011;47165;42.664;23.368;2023-02-10T00:09:42;0.30;;;0.30;;
61291;SDS011;47165;42.664;23.368;2023-02-10T00:12:07;0.77;;;0.50;;
61291;SDS011;47165;42.664;23.368;2023-02-10T00:14:34;0.65;;;0.55;;
61291;SDS011;47165;42.664;23.368;2023-02-10T00:17:00;1.25;;;0.75;;
61291;SDS011;47165;42.664;23.368;2023-02-10T00:19:26;0.82;;;0.60;;
61291;SDS011;47165;42.664;23.368;2023-02-10T00:21:53;1.15;;;1.05;;
61291;SDS011;47165;42.664;23.368;2023-02-10T00:24:18;2.50;;;1.13;;
61291;SDS011;47165;42.664;23.368;2023-02-10T00:26:45;2.38;;;1.85;;
61291;SDS011;47165;42.664;23.368;2023-02-10T00:29:11;1.98;;;1.88;;
61291;SDS011;47165;42.664;23.368;2023-02-10T00:31:36;4.85;;;1.77;;
61291;SDS011;47165;42.664;23.368;2023-02-10T00:34:01;3.17;;;0.57;;
61291;SDS011;47165;42.664;23.368;2023-02-10T00:36:27;1.38;;;0.50;;
61291;SDS011;47165;42.664;23.368;2023-02-10T00:38:53;1.40;;;1.17;;
61291;SDS011;47165;42.664;23.368;2023-02-10T00:41:19;1.20;;;1.10;;
61291;SDS011;47165;42.664;23.368;2023-02-10T00:43:46;0.30;;;0.30;;
61291;SDS011;47165;42.664;23.368;2023-02-10T00:46:12;2.15;;;0.85;;
61291;SDS011;47165;42.664;23.368;2023-02-10T00:48:40;1.58;;;1.13;;
61291;SDS011;47165;42.664;23.368;2023-02-10T00:51:05;0.73;;;0.73;;
61291;SDS011;47165;42.664;23.368;2023-02-10T00:53:31;5.47;;;1.73;;
61291;SDS011;47165;42.664;23.368;2023-02-10T00:55:57;0.93;;;0.85;;
61291;SDS011;47165;42.664;23.368;2023-02-10T00:58:23;4.32;;;2.13;;
61291;SDS011;47165;42.664;23.368;2023-02-10T01:00:49;2.00;;;1.63;;
61291;SDS011;47165;42.664;23.368;2023-02-10T01:03:14;2.47;;;1.20;;
61291;SDS011;47165;42.664;23.368;2023-02-10T01:05:40;1.17;;;1.10;;
61291;SDS011;47165;42.664;23.368;2023-02-10T01:08:06;0.40;;;0.40;;
61291;SDS011;47165;42.664;23.368;2023-02-10T01:10:34;5.88;;;1.10;;
61291;SDS011;47165;42.664;23.368;2023-02-10T01:13:00;1.00;;;0.88;;
61291;SDS011;47165;42.664;23.368;2023-02-10T01:15:26;2.30;;;1.05;;
61291;SDS011;47165;42.664;23.368;2023-02-10T01:17:52;4.03;;;1.23;;
61291;SDS011;47165;42.664;23.368;2023-02-10T01:20:17;0.35;;;0.35;;
61291;SDS011;47165;42.664;23.368;2023-02-10T01:22:43;1.42;;;0.90;;
61291;SDS011;47165;42.664;23.368;2023-02-10T01:25:09;0.45;;;0.45;;
61291;SDS011;47165;42.664;23.368;2023-02-10T01:27:34;9.23;;;2.47;;
61291;SDS011;47165;42.664;23.368;2023-02-10T01:30:00;4.07;;;1.58;;
61291;SDS011;47165;42.664;23.368;2023-02-10T01:32:26;1.98;;;1.88;;
61291;SDS011;47165;42.664;23.368;2023-02-10T01:34:51;0.73;;;0.47;;
61291;SDS011;47165;42.664;23.368;2023-02-10T01:37:17;1.65;;;1.55;;
61291;SDS011;47165;42.664;23.368;2023-02-10T01:39:42;1.38;;;1.27;;
61291;SDS011;47165;42.664;23.368;2023-02-10T01:42:09;1.23;;;1.00;;
61291;SDS011;47165;42.664;23.368;2023-02-10T01:47:03;2.30;;;1.38;;
61291;SDS011;47165;42.664;23.368;2023-02-10T01:49:30;1.08;;;1.08;;
61291;SDS011;47165;42.664;23.368;2023-02-10T01:52:10;0.55;;;0.55;;
61291;SDS011;47165;42.664;23.368;2023-02-10T01:54:41;0.73;;;0.73;;
61291;SDS011;47165;42.664;23.368;2023-02-10T01:57:11;0.65;;;0.65;;
61291;SDS011;47165;42.664;23.368;2023-02-10T01:59:37;2.85;;;1.55;;
61291;SDS011;47165;42.664;23.368;2023-02-10T02:02:05;2.50;;;2.33;;
61291;SDS011;47165;42.664;23.368;2023-02-10T02:04:37;0.43;;;0.43;;
61291;SDS011;47165;42.664;23.368;2023-02-10T02:07:10;3.75;;;0.55;;
61291;SDS011;47165;42.664;23.368;2023-02-10T02:09:35;0.45;;;0.40;;
61291;SDS011;47165;42.664;23.368;2023-02-10T02:15:14;0.45;;;0.45;;
61291;SDS011;47165;42.664;23.368;2023-02-10T02:18:00;0.28;;;0.28;;
61291;SDS011;47165;42.664;23.368;2023-02-10T02:20:35;1.65;;;0.70;;
61291;SDS011;47165;42.664;23.368;2023-02-10T02:28:26;1.88;;;1.13;;
61291;SDS011;47165;42.664;23.368;2023-02-10T02:34:20;1.00;;;1.00;;
61291;SDS011;47165;42.664;23.368;2023-02-10T02:36:56;0.95;;;0.77;;
61291;SDS011;47165;42.664;23.368;2023-02-10T02:39:24;1.80;;;1.70;;
61291;SDS011;47165;42.664;23.368;2023-02-10T02:41:59;1.15;;;1.10;;
61291;SDS011;47165;42.664;23.368;2023-02-10T02:44:39;1.25;;;0.65;;
61291;SDS011;47165;42.664;23.368;2023-02-10T02:49:59;0.20;;;0.20;;
61291;SDS011;47165;42.664;23.368;2023-02-10T02:53:17;0.30;;;0.30;;
61291;SDS011;47165;42.664;23.368;2023-02-10T02:55:25;0.10;;;0.10;;
61291;SDS011;47165;42.664;23.368;2023-02-10T03:00:58;0.38;;;0.38;;
61291;SDS011;47165;42.664;23.368;2023-02-10T03:03:31;0.20;;;0.20;;
61291;SDS011;47165;42.664;23.368;2023-02-10T03:05:59;0.00;;;0.00;;
61291;SDS011;47165;42.664;23.368;2023-02-10T03:08:25;2.20;;;1.58;;
61291;SDS011;47165;42.664;23.368;2023-02-10T03:10:50;0.38;;;0.38;;
61291;SDS011;47165;42.664;23.368;2023-02-10T03:13:16;3.03;;;0.73;;
61291;SDS011;47165;42.664;23.368;2023-02-10T03:15:41;1.65;;;0.75;;
61291;SDS011;47165;42.664;23.368;2023-02-10T03:18:07;0.10;;;0.10;;
61291;SDS011;47165;42.664;23.368;2023-02-10T03:20:33;1.45;;;1.35;;
61291;SDS011;47165;42.664;23.368;2023-02-10T03:22:58;1.65;;;1.55;;
61291;SDS011;47165;42.664;23.368;2023-02-10T03:25:23;1.98;;;1.50;;
61291;SDS011;47165;42.664;23.368;2023-02-10T03:27:49;2.08;;;1.55;;
61291;SDS011;47165;42.664;23.368;2023-02-10T03:30:14;10.77;;;2.25;;
61291;SDS011;47165;42.664;23.368;2023-02-10T03:32:40;2.30;;;2.08;;
61291;SDS011;47165;42.664;23.368;2023-02-10T03:35:05;2.85;;;1.25;;
61291;SDS011;47165;42.664;23.368;2023-02-10T03:37:31;0.55;;;0.35;;
61291;SDS011;47165;42.664;23.368;2023-02-10T03:39:57;1.75;;;1.65;;
61291;SDS011;47165;42.664;23.368;2023-02-10T03:42:22;1.33;;;1.23;;
61291;SDS011;47165;42.664;23.368;2023-02-10T03:44:47;2.40;;;0.90;;
61291;SDS011;47165;42.664;23.368;2023-02-10T03:47:13;4.70;;;2.40;;
61291;SDS011;47165;42.664;23.368;2023-02-10T03:49:38;5.40;;;2.30;;
61291;SDS011;47165;42.664;23.368;2023-02-10T03:52:04;0.65;;;0.65;;
61291;SDS011;47165;42.664;23.368;2023-02-10T03:54:29;0.98;;;0.98;;
61291;SDS011;47165;42.664;23.368;2023-02-10T03:56:56;0.98;;;0.75;;
61291;SDS011;47165;42.664;23.368;2023-02-10T03:59:21;1.85;;;1.75;;
61291;SDS011;47165;42.664;23.368;2023-02-10T04:01:47;1.50;;;1.42;;
61291;SDS011;47165;42.664;23.368;2023-02-10T04:04:12;2.25;;;1.65;;
61291;SDS011;47165;42.664;23.368;2023-02-10T04:06:38;0.82;;;0.82;;
61291;SDS011;47165;42.664;23.368;2023-02-10T04:09:03;2.38;;;2.17;;
61291;SDS011;47165;42.664;23.368;2023-02-10T04:11:29;0.32;;;0.30;;
61291;SDS011;47165;42.664;23.368;2023-02-10T04:13:54;0.17;;;0.17;;
61291;SDS011;47165;42.664;23.368;2023-02-10T04:16:20;0.40;;;0.40;;
61291;SDS011;47165;42.664;23.368;2023-02-10T04:18:48;1.58;;;1.48;;
61291;SDS011;47165;42.664;23.368;2023-02-10T04:21:14;2.70;;;1.33;;
61291;SDS011;47165;42.664;23.368;2023-02-10T04:23:40;3.83;;;2.78;;
61291;SDS011;47165;42.664;23.368;2023-02-10T04:26:05;6.55;;;3.45;;
61291;SDS011;47165;42.664;23.368;2023-02-10T04:28:31;0.55;;;0.55;;
61291;SDS011;47165;42.664;23.368;2023-02-10T04:30:58;1.50;;;0.88;;
61291;SDS011;47165;42.664;23.368;2023-02-10T04:33:25;3.95;;;2.05;;
61291;SDS011;47165;42.664;23.368;2023-02-10T04:35:51;0.65;;;0.65;;
61291;SDS011;47165;42.664;23.368;2023-02-10T04:38:18;0.60;;;0.60;;
61291;SDS011;47165;42.664;23.368;2023-02-10T04:40:43;3.17;;;1.33;;
61291;SDS011;47165;42.664;23.368;2023-02-10T04:43:09;0.65;;;0.60;;
61291;SDS011;47165;42.664;23.368;2023-02-10T04:45:35;0.65;;;0.52;;
61291;SDS011;47165;42.664;23.368;2023-02-10T04:48:01;0.25;;;0.25;;
61291;SDS011;47165;42.664;23.368;2023-02-10T04:50:26;0.40;;;0.40;;
61291;SDS011;47165;42.664;23.368;2023-02-10T04:52:52;5.40;;;3.47;;
61291;SDS011;47165;42.664;23.368;2023-02-10T04:55:17;3.15;;;2.10;;
61291;SDS011;47165;42.664;23.368;2023-02-10T04:57:43;4.07;;;3.15;;
61291;SDS011;47165;42.664;23.368;2023-02-10T05:00:08;1.90;;;1.73;;
61291;SDS011;47165;42.664;23.368;2023-02-10T05:02:34;14.13;;;2.92;;
61291;SDS011;47165;42.664;23.368;2023-02-10T05:05:00;0.70;;;0.70;;
61291;SDS011;47165;42.664;23.368;2023-02-10T05:07:25;2.85;;;2.20;;
61291;SDS011;47165;42.664;23.368;2023-02-10T05:09:51;2.40;;;2.20;;
61291;SDS011;47165;42.664;23.368;2023-02-10T05:12:16;0.15;;;0.15;;
61291;SDS011;47165;42.664;23.368;2023-02-10T05:14:42;1.58;;;1.48;;
61291;SDS011;47165;42.664;23.368;2023-02-10T05:17:07;2.72;;;2.42;;
61291;SDS011;47165;42.664;23.368;2023-02-10T05:19:33;4.90;;;2.22;;
61291;SDS011;47165;42.664;23.368;2023-02-10T05:21:58;2.67;;;2.15;;
61291;SDS011;47165;42.664;23.368;2023-02-10T05:24:24;1.45;;;1.35;;
61291;SDS011;47165;42.664;23.368;2023-02-10T05:26:49;0.85;;;0.85;;
61291;SDS011;47165;42.664;23.368;2023-02-10T05:29:15;4.40;;;1.75;;
61291;SDS011;47165;42.664;23.368;2023-02-10T05:31:40;6.35;;;2.72;;
61291;SDS011;47165;42.664;23.368;2023-02-10T05:34:06;4.18;;;3.47;;
61291;SDS011;47165;42.664;23.368;2023-02-10T05:36:31;9.43;;;3.15;;
61291;SDS011;47165;42.664;23.368;2023-02-10T05:38:57;2.85;;;2.65;;
61291;SDS011;47165;42.664;23.368;2023-02-10T05:41:41;4.18;;;3.80;;
61291;SDS011;47165;42.664;23.368;2023-02-10T05:44:06;5.38;;;2.75;;
61291;SDS011;47165;42.664;23.368;2023-02-10T05:46:32;4.40;;;1.85;;
61291;SDS011;47165;42.664;23.368;2023-02-10T05:48:57;2.72;;;2.58;;
61291;SDS011;47165;42.664;23.368;2023-02-10T05:51:22;2.47;;;2.38;;
61291;SDS011;47165;42.664;23.368;2023-02-10T05:53:48;2.15;;;2.05;;
61291;SDS011;47165;42.664;23.368;2023-02-10T05:56:13;2.25;;;2.08;;
61291;SDS011;47165;42.664;23.368;2023-02-10T05:58:39;6.70;;;2.05;;
61291;SDS011;47165;42.664;23.368;2023-02-10T06:01:08;4.25;;;3.03;;
61291;SDS011;47165;42.664;23.368;2023-02-10T06:03:34;3.05;;;2.75;;
61291;SDS011;47165;42.664;23.368;2023-02-10T06:05:59;8.45;;;4.15;;
61291;SDS011;47165;42.664;23.368;2023-02-10T06:08:25;2.42;;;2.05;;
61291;SDS011;47165;42.664;23.368;2023-02-10T06:10:51;5.85;;;2.92;;
61291;SDS011;47165;42.664;23.368;2023-02-10T06:13:17;3.80;;;2.42;;
61291;SDS011;47165;42.664;23.368;2023-02-10T06:15:42;8.15;;;4.82;;
61291;SDS011;47165;42.664;23.368;2023-02-10T06:18:08;5.80;;;2.78;;
61291;SDS011;47165;42.664;23.368;2023-02-10T06:20:33;1.77;;;1.45;;
61291;SDS011;47165;42.664;23.368;2023-02-10T06:22:58;6.60;;;3.30;;
61291;SDS011;47165;42.664;23.368;2023-02-10T06:25:24;3.05;;;2.85;;
61291;SDS011;47165;42.664;23.368;2023-02-10T06:27:49;4.00;;;3.58;;
61291;SDS011;47165;42.664;23.368;2023-02-10T06:30:15;2.35;;;2.20;;
61291;SDS011;47165;42.664;23.368;2023-02-10T06:32:40;3.85;;;3.38;;
61291;SDS011;47165;42.664;23.368;2023-02-10T06:35:06;4.60;;;3.55;;
61291;SDS011;47165;42.664;23.368;2023-02-10T06:37:31;1.95;;;1.85;;
61291;SDS011;47165;42.664;23.368;2023-02-10T06:39:57;5.40;;;3.33;;
61291;SDS011;47165;42.664;23.368;2023-02-10T06:42:22;1.08;;;1.08;;
61291;SDS011;47165;42.664;23.368;2023-02-10T06:44:48;1.92;;;1.67;;
61291;SDS011;47165;42.664;23.368;2023-02-10T06:47:13;7.13;;;2.53;;
61291;SDS011;47165;42.664;23.368;2023-02-10T06:49:39;4.35;;;2.05;;
61291;SDS011;47165;42.664;23.368;2023-02-10T06:52:04;2.65;;;2.45;;
61291;SDS011;47165;42.664;23.368;2023-02-10T06:54:29;6.40;;;4.20;;
61291;SDS011;47165;42.664;23.368;2023-02-10T06:56:55;8.88;;;3.45;;
61291;SDS011;47165;42.664;23.368;2023-02-10T06:59:20;1.42;;;1.33;;
61291;SDS011;47165;42.664;23.368;2023-02-10T07:01:46;2.35;;;2.15;;
61291;SDS011;47165;42.664;23.368;2023-02-10T07:04:12;1.20;;;1.15;;
61291;SDS011;47165;42.664;23.368;2023-02-10T07:06:37;9.52;;;1.98;;
61291;SDS011;47165;42.664;23.368;2023-02-10T07:09:03;16.17;;;2.67;;
61291;SDS011;47165;42.664;23.368;2023-02-10T07:11:29;3.20;;;2.65;;
61291;SDS011;47165;42.664;23.368;2023-02-10T07:13:56;3.65;;;3.35;;
61291;SDS011;47165;42.664;23.368;2023-02-10T07:16:21;2.92;;;2.75;;
61291;SDS011;47165;42.664;23.368;2023-02-10T07:18:47;5.03;;;4.63;;
61291;SDS011;47165;42.664;23.368;2023-02-10T07:21:13;2.80;;;2.60;;
61291;SDS011;47165;42.664;23.368;2023-02-10T07:23:38;0.40;;;0.40;;
61291;SDS011;47165;42.664;23.368;2023-02-10T07:26:04;1.17;;;0.90;;
61291;SDS011;47165;42.664;23.368;2023-02-10T07:28:30;7.93;;;3.35;;
61291;SDS011;47165;42.664;23.368;2023-02-10T07:30:55;1.08;;;1.02;;
61291;SDS011;47165;42.664;23.368;2023-02-10T07:33:21;5.28;;;3.55;;
61291;SDS011;47165;42.664;23.368;2023-02-10T07:35:46;5.75;;;3.33;;
61291;SDS011;47165;42.664;23.368;2023-02-10T07:38:12;9.68;;;3.20;;
61291;SDS011;47165;42.664;23.368;2023-02-10T07:40:37;7.10;;;3.47;;
61291;SDS011;47165;42.664;23.368;2023-02-10T07:43:03;3.42;;;2.50;;
61291;SDS011;47165;42.664;23.368;2023-02-10T07:45:28;5.30;;;3.95;;
61291;SDS011;47165;42.664;23.368;2023-02-10T07:47:56;1.75;;;1.65;;
61291;SDS011;47165;42.664;23.368;2023-02-10T07:50:23;1.73;;;1.63;;
61291;SDS011;47165;42.664;23.368;2023-02-10T07:52:49;3.10;;;2.90;;
61291;SDS011;47165;42.664;23.368;2023-02-10T07:55:15;2.50;;;1.77;;
61291;SDS011;47165;42.664;23.368;2023-02-10T07:57:41;3.33;;;1.95;;
61291;SDS011;47165;42.664;23.368;2023-02-10T08:00:09;1.85;;;1.40;;
61291;SDS011;47165;42.664;23.368;2023-02-10T08:02:37;3.40;;;1.88;;
61291;SDS011;47165;42.664;23.368;2023-02-10T08:05:02;3.83;;;1.88;;
61291;SDS011;47165;42.664;23.368;2023-02-10T08:07:28;1.83;;;1.73;;
61291;SDS011;47165;42.664;23.368;2023-02-10T08:09:54;3.05;;;1.70;;
61291;SDS011;47165;42.664;23.368;2023-02-10T08:12:19;2.33;;;1.88;;
61291;SDS011;47165;42.664;23.368;2023-02-10T08:14:45;0.28;;;0.28;;
61291;SDS011;47165;42.664;23.368;2023-02-10T08:17:11;3.20;;;2.15;;
61291;SDS011;47165;42.664;23.368;2023-02-10T08:19:36;9.75;;;5.32;;
61291;SDS011;47165;42.664;23.368;2023-02-10T08:22:03;2.28;;;2.10;;
61291;SDS011;47165;42.664;23.368;2023-02-10T08:24:29;2.67;;;2.47;;
61291;SDS011;47165;42.664;23.368;2023-02-10T08:26:55;8.00;;;1.73;;
61291;SDS011;47165;42.664;23.368;2023-02-10T08:29:20;0.90;;;0.90;;
61291;SDS011;47165;42.664;23.368;2023-02-10T08:31:48;3.20;;;3.00;;
61291;SDS011;47165;42.664;23.368;2023-02-10T08:34:15;5.20;;;2.45;;
61291;SDS011;47165;42.664;23.368;2023-02-10T08:36:42;0.73;;;0.73;;
61291;SDS011;47165;42.664;23.368;2023-02-10T08:39:09;2.15;;;2.05;;
61291;SDS011;47165;42.664;23.368;2023-02-10T08:41:35;1.10;;;0.60;;
61291;SDS011;47165;42.664;23.368;2023-02-10T08:44:00;1.30;;;1.20;;
61291;SDS011;47165;42.664;23.368;2023-02-10T08:46:26;0.28;;;0.28;;
61291;SDS011;47165;42.664;23.368;2023-02-10T08:48:51;4.47;;;3.10;;
61291;SDS011;47165;42.664;23.368;2023-02-10T08:51:17;3.08;;;1.50;;
61291;SDS011;47165;42.664;23.368;2023-02-10T08:53:42;7.47;;;2.35;;
61291;SDS011;47165;42.664;23.368;2023-02-10T08:56:09;5.57;;;2.40;;
61291;SDS011;47165;42.664;23.368;2023-02-10T08:58:38;0.70;;;0.70;;
61291;SDS011;47165;42.664;23.368;2023-02-10T09:01:08;0.95;;;0.90;;
61291;SDS011;47165;42.664;23.368;2023-02-10T09:03:36;6.53;;;2.88;;
61291;SDS011;47165;42.664;23.368;2023-02-10T09:06:03;4.75;;;2.35;;
61291;SDS011;47165;42.664;23.368;2023-02-10T09:08:29;2.28;;;2.08;;
61291;SDS011;47165;42.664;23.368;2023-02-10T09:10:54;3.65;;;3.35;;
61291;SDS011;47165;42.664;23.368;2023-02-10T09:13:20;4.15;;;2.30;;
61291;SDS011;47165;42.664;23.368;2023-02-10T09:15:46;2.38;;;2.08;;
61291;SDS011;47165;42.664;23.368;2023-02-10T09:18:11;12.00;;;5.15;;
61291;SDS011;47165;42.664;23.368;2023-02-10T09:20:37;5.90;;;2.00;;
61291;SDS011;47165;42.664;23.368;2023-02-10T09:23:03;6.68;;;3.08;;
61291;SDS011;47165;42.664;23.368;2023-02-10T09:25:28;4.68;;;3.05;;
61291;SDS011;47165;42.664;23.368;2023-02-10T09:27:54;5.47;;;2.90;;
61291;SDS011;47165;42.664;23.368;2023-02-10T09:30:23;6.80;;;1.98;;
61291;SDS011;47165;42.664;23.368;2023-02-10T09:32:51;4.75;;;1.90;;
61291;SDS011;47165;42.664;23.368;2023-02-10T09:35:17;4.80;;;1.13;;
61291;SDS011;47165;42.664;23.368;2023-02-10T09:37:43;3.38;;;3.08;;
61291;SDS011;47165;42.664;23.368;2023-02-10T09:40:15;2.67;;;2.45;;
61291;SDS011;47165;42.664;23.368;2023-02-10T09:45:36;8.57;;;3.00;;
61291;SDS011;47165;42.664;23.368;2023-02-10T09:48:55;2.58;;;2.33;;
61291;SDS011;47165;42.664;23.368;2023-02-10T09:51:06;1.00;;;0.73;;
61291;SDS011;47165;42.664;23.368;2023-02-10T09:53:48;3.67;;;2.72;;
61291;SDS011;47165;42.664;23.368;2023-02-10T09:56:17;8.07;;;3.38;;
61291;SDS011;47165;42.664;23.368;2023-02-10T09:58:52;1.58;;;1.35;;
61291;SDS011;47165;42.664;23.368;2023-02-10T10:04:13;4.03;;;2.92;;
61291;SDS011;47165;42.664;23.368;2023-02-10T10:06:42;7.45;;;3.25;;
61291;SDS011;47165;42.664;23.368;2023-02-10T10:14:01;3.25;;;2.95;;
61291;SDS011;47165;42.664;23.368;2023-02-10T10:36:18;3.05;;;2.53;;
61291;SDS011;47165;42.664;23.368;2023-02-10T10:38:50;4.72;;;2.42;;
61291;SDS011;47165;42.664;23.368;2023-02-10T10:41:18;3.20;;;2.72;;
61291;SDS011;47165;42.664;23.368;2023-02-10T10:43:49;6.13;;;4.38;;
61291;SDS011;47165;42.664;23.368;2023-02-10T10:48:51;7.75;;;3.28;;
61291;SDS011;47165;42.664;23.368;2023-02-10T10:51:16;6.82;;;3.13;;
61291;SDS011;47165;42.664;23.368;2023-02-10T10:58:46;3.13;;;1.98;;
61291;SDS011;47165;42.664;23.368;2023-02-10T11:01:13;6.28;;;2.85;;
61291;SDS011;47165;42.664;23.368;2023-02-10T11:03:40;5.47;;;2.90;;
61291;SDS011;47165;42.664;23.368;2023-02-10T11:06:07;6.85;;;2.28;;
61291;SDS011;47165;42.664;23.368;2023-02-10T11:08:37;6.25;;;2.60;;
61291;SDS011;47165;42.664;23.368;2023-02-10T11:11:16;2.28;;;2.08;;
61291;SDS011;47165;42.664;23.368;2023-02-10T11:13:49;5.03;;;2.42;;
61291;SDS011;47165;42.664;23.368;2023-02-10T11:16:18;4.75;;;2.55;;
61291;SDS011;47165;42.664;23.368;2023-02-10T11:18:52;2.33;;;1.40;;
61291;SDS011;47165;42.664;23.368;2023-02-10T11:21:18;5.32;;;2.92;;
61291;SDS011;47165;42.664;23.368;2023-02-10T11:23:50;5.35;;;2.72;;
61291;SDS011;47165;42.664;23.368;2023-02-10T11:26:19;5.78;;;3.72;;
61291;SDS011;47165;42.664;23.368;2023-02-10T11:28:46;5.10;;;3.28;;
61291;SDS011;47165;42.664;23.368;2023-02-10T11:36:42;7.88;;;3.50;;
61291;SDS011;47165;42.664;23.368;2023-02-10T11:41:43;13.77;;;6.10;;
61291;SDS011;47165;42.664;23.368;2023-02-10T11:47:11;11.07;;;4.85;;
61291;SDS011;47165;42.664;23.368;2023-02-10T11:49:41;6.10;;;2.90;;
61291;SDS011;47165;42.664;23.368;2023-02-10T11:52:09;8.30;;;4.32;;
61291;SDS011;47165;42.664;23.368;2023-02-10T11:54:35;10.60;;;4.80;;
61291;SDS011;47165;42.664;23.368;2023-02-10T12:00:37;7.80;;;4.82;;
61291;SDS011;47165;42.664;23.368;2023-02-10T12:03:28;9.02;;;4.95;;
61291;SDS011;47165;42.664;23.368;2023-02-10T12:06:21;12.93;;;5.22;;
61291;SDS011;47165;42.664;23.368;2023-02-10T12:19:48;10.18;;;4.60;;
61291;SDS011;47165;42.664;23.368;2023-02-10T12:28:01;10.45;;;5.63;;
61291;SDS011;47165;42.664;23.368;2023-02-10T12:50:08;11.50;;;7.03;;
61291;SDS011;47165;42.664;23.368;2023-02-10T12:52:40;12.50;;;6.18;;
61291;SDS011;47165;42.664;23.368;2023-02-10T12:55:25;11.18;;;6.35;;
61291;SDS011;47165;42.664;23.368;2023-02-10T12:57:59;13.75;;;5.38;;
61291;SDS011;47165;42.664;23.368;2023-02-10T13:00:35;12.80;;;5.57;;
61291;SDS011;47165;42.664;23.368;2023-02-10T13:05:59;8.80;;;4.72;;
61291;SDS011;47165;42.664;23.368;2023-02-10T13:08:38;9.27;;;5.63;;
61291;SDS011;47165;42.664;23.368;2023-02-10T13:11:16;12.13;;;5.78;;
61291;SDS011;47165;42.664;23.368;2023-02-10T13:13:51;11.85;;;6.07;;
61291;SDS011;47165;42.664;23.368;2023-02-10T13:16:19;17.05;;;5.82;;
61291;SDS011;47165;42.664;23.368;2023-02-10T13:18:53;9.05;;;4.55;;
61291;SDS011;47165;42.664;23.368;2023-02-10T13:21:26;13.85;;;5.43;;
61291;SDS011;47165;42.664;23.368;2023-02-10T13:34:57;9.40;;;4.55;;
61291;SDS011;47165;42.664;23.368;2023-02-10T13:37:34;9.55;;;5.63;;
61291;SDS011;47165;42.664;23.368;2023-02-10T13:43:03;12.00;;;5.85;;
61291;SDS011;47165;42.664;23.368;2023-02-10T13:45:33;11.77;;;5.38;;
61291;SDS011;47165;42.664;23.368;2023-02-10T13:48:03;13.25;;;5.88;;
61291;SDS011;47165;42.664;23.368;2023-02-10T13:50:51;10.15;;;6.07;;
61291;SDS011;47165;42.664;23.368;2023-02-10T13:56:03;12.20;;;6.38;;
61291;SDS011;47165;42.664;23.368;2023-02-10T13:58:34;8.70;;;3.67;;
61291;SDS011;47165;42.664;23.368;2023-02-10T14:01:00;12.90;;;5.13;;
61291;SDS011;47165;42.664;23.368;2023-02-10T14:03:28;14.50;;;5.95;;
61291;SDS011;47165;42.664;23.368;2023-02-10T14:08:31;7.68;;;4.32;;
61291;SDS011;47165;42.664;23.368;2023-02-10T14:13:38;9.32;;;4.53;;
61291;SDS011;47165;42.664;23.368;2023-02-10T14:16:07;11.55;;;4.60;;
61291;SDS011;47165;42.664;23.368;2023-02-10T14:21:48;12.93;;;5.60;;
61291;SDS011;47165;42.664;23.368;2023-02-10T14:24:19;12.68;;;4.45;;
61291;SDS011;47165;42.664;23.368;2023-02-10T14:26:49;13.35;;;6.72;;
61291;SDS011;47165;42.664;23.368;2023-02-10T14:29:16;10.75;;;5.70;;
61291;SDS011;47165;42.664;23.368;2023-02-10T14:31:45;9.23;;;5.43;;
61291;SDS011;47165;42.664;23.368;2023-02-10T14:34:27;11.48;;;6.55;;
61291;SDS011;47165;42.664;23.368;2023-02-10T14:36:58;10.75;;;5.65;;
61291;SDS011;47165;42.664;23.368;2023-02-10T14:39:26;9.93;;;4.72;;
61291;SDS011;47165;42.664;23.368;2023-02-10T14:41:53;8.15;;;3.83;;
61291;SDS011;47165;42.664;23.368;2023-02-10T14:44:39;15.50;;;5.45;;
61291;SDS011;47165;42.664;23.368;2023-02-10T14:47:17;12.52;;;5.35;;
61291;SDS011;47165;42.664;23.368;2023-02-10T14:49:49;13.35;;;5.30;;
61291;SDS011;47165;42.664;23.368;2023-02-10T14:52:19;15.27;;;6.05;;
61291;SDS011;47165;42.664;23.368;2023-02-10T14:54:59;10.68;;;5.07;;
61291;SDS011;47165;42.664;23.368;2023-02-10T14:57:26;12.88;;;6.13;;
61291;SDS011;47165;42.664;23.368;2023-02-10T14:59:58;13.60;;;6.63;;
61291;SDS011;47165;42.664;23.368;2023-02-10T15:02:28;9.43;;;4.97;;
61291;SDS011;47165;42.664;23.368;2023-02-10T15:04:56;12.75;;;4.88;;
61291;SDS011;47165;42.664;23.368;2023-02-10T15:07:34;12.57;;;5.07;;
61291;SDS011;47165;42.664;23.368;2023-02-10T15:10:24;13.93;;;5.35;;
61291;SDS011;47165;42.664;23.368;2023-02-10T15:12:56;8.20;;;3.83;;
61291;SDS011;47165;42.664;23.368;2023-02-10T15:15:34;12.65;;;5.57;;
61291;SDS011;47165;42.664;23.368;2023-02-10T15:18:05;12.73;;;5.90;;
61291;SDS011;47165;42.664;23.368;2023-02-10T15:20:54;11.55;;;4.57;;
61291;SDS011;47165;42.664;23.368;2023-02-10T15:23:21;13.60;;;4.47;;
61291;SDS011;47165;42.664;23.368;2023-02-10T15:25:47;9.43;;;5.10;;
61291;SDS011;47165;42.664;23.368;2023-02-10T15:28:26;6.25;;;3.50;;
61291;SDS011;47165;42.664;23.368;2023-02-10T15:31:05;15.20;;;5.22;;
61291;SDS011;47165;42.664;23.368;2023-02-10T15:39:25;8.13;;;3.30;;
61291;SDS011;47165;42.664;23.368;2023-02-10T15:46:51;6.97;;;4.63;;
61291;SDS011;47165;42.664;23.368;2023-02-10T15:49:18;5.60;;;4.32;;
61291;SDS011;47165;42.664;23.368;2023-02-10T15:51:45;11.98;;;5.57;;
61291;SDS011;47165;42.664;23.368;2023-02-10T15:54:17;11.43;;;5.10;;
61291;SDS011;47165;42.664;23.368;2023-02-10T15:56:59;12.60;;;6.97;;
61291;SDS011;47165;42.664;23.368;2023-02-10T15:59:27;6.20;;;4.70;;
61291;SDS011;47165;42.664;23.368;2023-02-10T16:01:56;11.93;;;6.70;;
61291;SDS011;47165;42.664;23.368;2023-02-10T16:04:26;9.45;;;5.18;;
61291;SDS011;47165;42.664;23.368;2023-02-10T16:06:54;13.15;;;7.07;;
61291;SDS011;47165;42.664;23.368;2023-02-10T16:09:21;9.27;;;5.07;;
61291;SDS011;47165;42.664;23.368;2023-02-10T16:11:46;5.47;;;3.70;;
61291;SDS011;47165;42.664;23.368;2023-02-10T16:14:12;10.63;;;5.50;;
61291;SDS011;47165;42.664;23.368;2023-02-10T16:16:39;15.13;;;6.22;;
61291;SDS011;47165;42.664;23.368;2023-02-10T16:19:09;11.43;;;3.88;;
61291;SDS011;47165;42.664;23.368;2023-02-10T16:21:37;5.25;;;3.45;;
61291;SDS011;47165;42.664;23.368;2023-02-10T16:24:02;5.43;;;4.25;;
61291;SDS011;47165;42.664;23.368;2023-02-10T16:26:28;11.02;;;5.30;;
61291;SDS011;47165;42.664;23.368;2023-02-10T16:28:54;12.48;;;6.45;;
61291;SDS011;47165;42.664;23.368;2023-02-10T16:31:21;7.88;;;5.70;;
61291;SDS011;47165;42.664;23.368;2023-02-10T16:33:47;8.60;;;3.92;;
61291;SDS011;47165;42.664;23.368;2023-02-10T16:36:14;4.53;;;2.78;;
61291;SDS011;47165;42.664;23.368;2023-02-10T16:38:41;11.52;;;5.65;;
61291;SDS011;47165;42.664;23.368;2023-02-10T16:41:07;8.40;;;4.30;;
61291;SDS011;47165;42.664;23.368;2023-02-10T16:43:33;10.18;;;4.95;;
61291;SDS011;47165;42.664;23.368;2023-02-10T16:45:58;10.98;;;4.63;;
61291;SDS011;47165;42.664;23.368;2023-02-10T16:48:24;13.85;;;9.70;;
61291;SDS011;47165;42.664;23.368;2023-02-10T16:50:49;10.70;;;3.85;;
61291;SDS011;47165;42.664;23.368;2023-02-10T16:53:15;10.50;;;7.20;;
61291;SDS011;47165;42.664;23.368;2023-02-10T16:55:40;8.98;;;7.18;;
61291;SDS011;47165;42.664;23.368;2023-02-10T16:58:09;17.88;;;3.58;;
61291;SDS011;47165;42.664;23.368;2023-02-10T17:00:37;6.45;;;4.88;;
61291;SDS011;47165;42.664;23.368;2023-02-10T17:03:03;4.53;;;4.05;;
61291;SDS011;47165;42.664;23.368;2023-02-10T17:05:28;8.50;;;6.40;;